CDT,Max TemperatureF,Mean TemperatureF,Min TemperatureF,Max Dew PointF,MeanDew PointF,Min DewpointF,Max Humidity, Mean Humidity, Min Humidity, Max Sea Level PressureIn, Mean Sea Level PressureIn, Min Sea Level PressureIn, Max VisibilityMiles, Mean VisibilityMiles, Min VisibilityMiles, Max Wind SpeedMPH, Mean Wind SpeedMPH, Max Gust SpeedMPH,PrecipitationIn, CloudCover, Events, WindDirDegrees
2013-3-1,30,28,25,24,22,19,84,80,74,30.21,30.14,30.07,10,10,7,25,15,28,0.00,8,Snow,58
2013-3-2,28,21,14,19,15,10,83,73,56,30.23,30.20,30.17,10,10,10,16,13,18,0.00,3,,312
2013-3-3,32,21,10,16,12,8,88,69,42,30.17,30.12,30.08,10,10,7,8,4,,0.00,0,,341
2013-3-4,33,27,21,28,22,13,83,74,66,30.11,30.01,29.93,10,10,7,21,10,28,0.00,6,,98
2013-3-5,33,30,27,32,30,25,100,94,85,30.04,29.88,29.80,10,3,0,24,11,29,0.28,8,Rain-Snow,16
2013-3-6,31,28,25,26,24,23,90,84,79,30.32,30.25,30.05,10,10,5,23,16,,0.00,8,,297
2013-3-7,35,29,23,25,23,20,89,78,63,30.41,30.38,30.32,10,10,7,8,5,,0.00,5,,284
2013-3-8,39,29,19,30,25,17,94,80,65,30.46,30.39,30.27,10,8,2,16,8,23,0.00,0,,107
2013-3-9,42,38,33,37,33,28,89,80,75,30.26,30.02,29.81,10,10,4,22,13,29,0.09,7,Rain-Snow,117
2013-3-10,47,44,41,46,42,38,100,94,86,29.85,29.70,29.58,7,3,0,20,10,24,0.89,8,Fog-Rain,139
2013-3-11,42,38,32,43,35,28,100,94,84,29.85,29.67,29.58,10,5,0,22,12,29,0.04,8,Fog-Rain-Snow,255
2013-3-12,39,33,27,32,25,20,92,78,66,30.08,29.96,29.85,10,9,1,25,17,37,0.00,6,Snow,272
2013-3-13,34,29,24,22,20,15,82,69,47,30.34,30.25,30.08,10,10,10,23,16,28,0.00,3,,297
2013-3-14,36,30,24,32,27,20,94,83,67,30.35,30.23,30.06,10,10,0,14,6,,0.01,3,Snow,176
2013-3-15,44,37,30,39,34,28,97,87,69,30.06,29.88,29.71,10,6,0,20,5,21,0.00,3,Fog,111
2013-3-16,35,32,30,34,30,25,100,87,75,30.12,29.93,29.70,10,8,2,17,12,21,0.00,7,,43
2013-3-17,38,32,27,27,24,19,82,71,60,30.19,30.09,29.93,10,10,10,18,11,22,0.00,4,,82
2013-3-18,37,30,24,34,27,14,96,85,64,29.93,29.76,29.65,10,7,1,29,14,40,0.02,8,Rain-Snow,290
2013-3-19,35,26,18,20,15,10,72,62,44,30.13,30.02,29.86,10,10,10,31,21,41,0.00,1,,281
2013-3-20,27,20,14,19,11,5,79,62,52,30.15,30.10,30.06,10,10,7,26,18,33,0.00,4,,296
2013-3-21,32,22,13,21,13,8,82,64,48,30.09,30.05,30.01,10,10,10,15,9,17,0.00,0,,305
2013-3-22,41,30,19,24,19,14,92,66,43,30.07,30.04,30.00,10,10,7,9,3,,0.00,0,,353
2013-3-23,43,34,25,26,24,20,87,66,44,30.12,30.05,29.98,10,10,7,17,7,22,0.00,2,,61
2013-3-24,36,33,30,31,29,26,96,86,70,30.01,29.80,29.67,10,6,1,23,13,31,0.00,8,Rain-Snow,53
2013-3-25,37,32,28,30,26,23,91,78,70,30.11,29.91,29.75,10,10,2,22,18,29,0.00,8,Snow,290
2013-3-26,39,36,32,28,26,23,83,71,55,30.28,30.21,30.11,10,10,10,15,10,18,0.00,7,,298
2013-3-27,44,38,30,28,25,21,82,63,41,30.35,30.31,30.28,10,10,10,13,7,17,0.00,6,,296
2013-3-28,50,38,26,32,28,24,94,67,44,30.37,30.32,30.27,10,10,5,8,1,,0.00,1,,343
2013-3-29,54,44,34,35,31,29,87,62,40,30.32,30.27,30.21,10,10,10,9,2,,0.00,4,,63
2013-3-30,57,44,31,42,35,25,79,66,48,30.24,30.05,29.86,10,10,7,22,9,30,0.00,3,,187
2013-3-31,59,47,36,45,37,28,93,70,39,29.93,29.83,29.76,10,9,2,25,13,37,0.00,4,,286